Terminal Aerodrome Forecast
Issued by NWS Sterling, VA

Current Version | Previous Version | Graphics & Text | Print | Product List | Glossary On
Versions: 1 2 3 4 5 6 7 8 9 10 11 12 13 14 15 16 17 18 19 20 21
000
FTUS41 KLWX 220500
TAFMRB
TAF
KMRB 220538Z 2206/2306 33009KT 3SM -SHRA OVC020
     FM220800 35013KT 3SM -SHRA SCT015 OVC020
     FM221200 35013KT P6SM SCT015 OVC020
     FM221600 35016G24KT P6SM OVC025
     FM222200 34017KT P6SM BKN035
     FM230500 32018G28KT P6SM SCT250=

USA.gov is the U.S. government's official web portal to all federal, state and local government web resources and services.